Time;durP1;ratioP1;P1;durP2;ratioP2;P2;SDS_P1;SDS_P2;PMS_P1;PMS_P2;Temp;Humidity;BMP_temperature;BMP_pressure;BME280_temperature;BME280_humidity;BME280_pressure;Samples;Min_cycle;Max_cycle;Signal;HPM_P1;HPM_P2
2021/03/07 00:01:19;;;;;;;22.70;11.38;;;-1.00;99.90;;;;;;5019304;28;20549;-73
2021/03/07 00:04:04;;;;;;;22.60;11.45;;;-1.10;99.90;;;;;;5019979;28;20142;-73
2021/03/07 00:06:48;;;;;;;18.45;10.07;;;-1.10;99.90;;;;;;5028868;28;20044;-73
2021/03/07 00:09:32;;;;;;;20.60;11.07;;;-1.20;99.90;;;;;;5026272;28;20462;-73
2021/03/07 00:12:16;;;;;;;20.58;9.70;;;-1.30;99.90;;;;;;5025249;28;20068;-73
2021/03/07 00:15:01;;;;;;;22.50;11.68;;;-1.40;99.90;;;;;;5022371;28;20052;-73
2021/03/07 00:17:47;;;;;;;26.42;13.95;;;-1.40;99.90;;;;;;5028866;28;20430;-73
2021/03/07 00:20:32;;;;;;;26.95;13.30;;;-1.50;99.90;;;;;;5023526;28;20139;-73
2021/03/07 00:23:16;;;;;;;23.55;11.75;;;-1.60;99.90;;;;;;5029983;28;20080;-73
2021/03/07 00:26:00;;;;;;;19.10;10.23;;;-1.60;99.90;;;;;;5023477;28;20072;-73
2021/03/07 00:28:44;;;;;;;28.02;13.52;;;-1.60;99.90;;;;;;5021015;28;20088;-73
2021/03/07 00:31:28;;;;;;;31.83;15.50;;;-1.70;99.90;;;;;;5028319;28;20049;-73
2021/03/07 00:34:13;;;;;;;41.00;17.70;;;-1.70;99.90;;;;;;5014288;28;20107;-73
2021/03/07 00:36:57;;;;;;;37.75;16.40;;;-1.80;99.90;;;;;;5021967;28;20040;-74
2021/03/07 00:39:41;;;;;;;23.65;11.25;;;-1.90;99.90;;;;;;5013579;28;20100;-73
2021/03/07 00:42:25;;;;;;;17.50;8.88;;;-1.90;99.90;;;;;;5015339;28;20060;-73
2021/03/07 00:45:10;;;;;;;16.48;8.25;;;-2.00;99.90;;;;;;5019586;28;20490;-73
2021/03/07 00:47:54;;;;;;;25.85;9.65;;;-2.00;99.90;;;;;;5019090;28;20175;-73
2021/03/07 00:50:38;;;;;;;21.95;9.38;;;-2.00;99.90;;;;;;5014075;28;20136;-73
2021/03/07 00:53:23;;;;;;;15.27;7.28;;;-2.10;99.90;;;;;;5020357;28;20071;-73
2021/03/07 00:56:07;;;;;;;10.27;5.13;;;-2.00;99.90;;;;;;5021003;28;20951;-73
2021/03/07 00:58:52;;;;;;;10.30;5.05;;;-2.00;99.90;;;;;;5022677;28;20099;-73
2021/03/07 01:01:36;;;;;;;8.35;4.07;;;-2.10;99.90;;;;;;5019043;28;20132;-73
2021/03/07 01:04:21;;;;;;;11.85;4.57;;;-2.00;99.90;;;;;;5022250;28;20215;-73
2021/03/07 01:07:05;;;;;;;10.25;4.30;;;-2.20;99.90;;;;;;5043671;28;20053;-73
2021/03/07 01:09:49;;;;;;;8.50;4.03;;;-2.30;99.90;;;;;;5022006;28;20091;-73
2021/03/07 01:12:33;;;;;;;10.68;4.10;;;-2.20;99.90;;;;;;5020228;28;20049;-73
2021/03/07 01:15:20;;;;;;;9.55;4.80;;;-2.20;99.90;;;;;;5015138;28;20056;-73
2021/03/07 01:18:05;;;;;;;6.65;4.15;;;-2.20;99.90;;;;;;5017524;28;20523;-73
2021/03/07 01:20:50;;;;;;;7.35;3.90;;;-2.20;99.90;;;;;;5024359;28;20039;-73
2021/03/07 01:23:34;;;;;;;10.15;4.40;;;-2.20;99.90;;;;;;5021409;28;20036;-73
2021/03/07 01:26:19;;;;;;;6.68;3.47;;;-2.20;99.90;;;;;;5016182;28;20442;-73
2021/03/07 01:29:04;;;;;;;6.45;3.60;;;-2.20;99.90;;;;;;5021856;28;20045;-73
2021/03/07 01:31:49;;;;;;;8.77;3.38;;;-2.20;99.90;;;;;;5022227;28;20129;-73
2021/03/07 01:34:33;;;;;;;7.05;3.40;;;-2.20;99.90;;;;;;5023486;28;20136;-73
2021/03/07 01:37:17;;;;;;;7.60;3.38;;;-2.10;99.90;;;;;;5022509;28;20441;-73
2021/03/07 01:40:04;;;;;;;6.78;3.00;;;-2.20;99.90;;;;;;5023822;28;20090;-73
2021/03/07 01:42:54;;;;;;;7.30;3.50;;;-2.20;99.90;;;;;;5023975;28;20525;-73
2021/03/07 01:45:39;;;;;;;8.82;3.72;;;-2.40;99.90;;;;;;5020949;28;20080;-73
2021/03/07 01:48:23;;;;;;;7.60;4.05;;;-2.60;99.90;;;;;;5027143;28;20064;-73
2021/03/07 01:51:08;;;;;;;9.88;4.95;;;-2.70;99.90;;;;;;5015862;28;20056;-72
2021/03/07 01:53:52;;;;;;;12.85;5.50;;;-2.80;99.90;;;;;;5023055;28;20522;-73
2021/03/07 01:56:38;;;;;;;11.35;5.00;;;-2.80;99.90;;;;;;5020878;28;20151;-72
2021/03/07 01:59:24;;;;;;;11.23;4.85;;;-2.80;99.90;;;;;;5018876;28;20517;-72
2021/03/07 02:02:08;;;;;;;8.75;3.90;;;-2.80;99.90;;;;;;5018323;28;20123;-72
2021/03/07 02:04:53;;;;;;;10.43;4.40;;;-2.90;99.90;;;;;;5019553;28;20088;-72
2021/03/07 02:07:39;;;;;;;7.95;4.00;;;-2.80;99.90;;;;;;5019205;28;20114;-73
2021/03/07 02:10:29;;;;;;;7.75;4.20;;;-2.90;99.90;;;;;;5021265;28;20227;-73
2021/03/07 02:13:38;;;;;;;9.25;3.95;;;-3.10;99.90;;;;;;5021072;28;20103;-73
2021/03/07 02:16:25;;;;;;;7.00;3.88;;;-3.10;99.90;;;;;;5019530;28;20045;-73
2021/03/07 02:19:10;;;;;;;7.40;3.55;;;-3.00;99.90;;;;;;5017086;28;20049;-73
2021/03/07 02:21:58;;;;;;;7.72;3.38;;;-2.80;99.90;;;;;;5017417;28;20418;-72
2021/03/07 02:24:43;;;;;;;6.05;3.30;;;-2.80;99.90;;;;;;5020647;28;20036;-73
2021/03/07 02:27:28;;;;;;;7.38;3.92;;;-2.70;99.90;;;;;;5012966;28;20069;-73
2021/03/07 02:30:14;;;;;;;11.48;3.95;;;-2.80;99.90;;;;;;5009391;28;20130;-73
2021/03/07 02:33:10;;;;;;;9.93;3.28;;;-2.90;99.90;;;;;;5009917;28;20069;-73
2021/03/07 02:36:13;;;;;;;12.38;3.60;;;-2.90;99.90;;;;;;5012585;28;20138;-72
2021/03/07 02:38:59;;;;;;;6.95;3.83;;;-2.90;99.90;;;;;;5013535;28;20065;-72
2021/03/07 02:41:45;;;;;;;6.88;3.42;;;-3.00;99.90;;;;;;5013650;28;20041;-73
2021/03/07 02:44:31;;;;;;;7.82;3.80;;;-3.00;99.90;;;;;;5015661;28;20048;-73
2021/03/07 02:47:17;;;;;;;7.13;3.60;;;-3.10;99.90;;;;;;5016764;28;20056;-73
2021/03/07 02:50:09;;;;;;;8.77;3.83;;;-3.10;99.90;;;;;;5016198;28;20044;-73
2021/03/07 02:53:16;;;;;;;9.73;3.70;;;-3.10;99.90;;;;;;5016859;28;20192;-73
2021/03/07 02:56:10;;;;;;;9.27;4.28;;;-3.20;99.90;;;;;;5021011;28;20103;-73
2021/03/07 02:59:00;;;;;;;13.20;4.40;;;-3.30;99.90;;;;;;5018817;28;20068;-73
2021/03/07 03:01:45;;;;;;;8.07;4.22;;;-3.30;99.90;;;;;;5012894;28;20071;-73
2021/03/07 03:04:31;;;;;;;7.75;3.70;;;-3.40;99.90;;;;;;5018616;28;20178;-72
2021/03/07 03:07:16;;;;;;;8.73;4.03;;;-3.50;99.90;;;;;;5013046;28;20056;-73
2021/03/07 03:10:04;;;;;;;5.75;3.60;;;-3.60;99.90;;;;;;5022733;28;20088;-72
2021/03/07 03:12:49;;;;;;;12.35;4.63;;;-3.60;99.90;;;;;;5013775;28;20439;-73
2021/03/07 03:15:35;;;;;;;8.18;4.07;;;-3.70;99.90;;;;;;5017120;28;20102;-73
2021/03/07 03:18:21;;;;;;;6.93;4.43;;;-3.70;99.90;;;;;;5021588;28;20068;-73
2021/03/07 03:21:09;;;;;;;8.80;4.38;;;-3.60;99.90;;;;;;5024275;28;20574;-73
2021/03/07 03:23:53;;;;;;;7.95;3.85;;;-3.70;99.90;;;;;;5017375;28;20048;-73
2021/03/07 03:26:38;;;;;;;12.60;4.13;;;-3.60;99.90;;;;;;5016005;28;20123;-73
2021/03/07 03:29:22;;;;;;;9.27;3.83;;;-3.60;99.90;;;;;;5015068;28;20052;-73
2021/03/07 03:32:09;;;;;;;8.77;4.40;;;-3.50;99.90;;;;;;5013636;28;20072;-73
2021/03/07 03:34:53;;;;;;;10.82;4.43;;;-3.50;99.90;;;;;;5015519;28;20064;-73
2021/03/07 03:37:38;;;;;;;6.55;3.45;;;-3.50;99.90;;;;;;5016652;28;20045;-73
2021/03/07 03:40:26;;;;;;;7.93;3.75;;;-3.40;99.90;;;;;;5017602;28;20052;-73
2021/03/07 03:43:11;;;;;;;8.15;3.78;;;-3.50;99.90;;;;;;5023060;28;20048;-73
2021/03/07 03:46:00;;;;;;;9.57;4.05;;;-3.60;99.90;;;;;;5021808;28;20049;-73
2021/03/07 03:48:51;;;;;;;10.75;4.32;;;-3.50;99.90;;;;;;5023162;28;20130;-73
2021/03/07 03:51:38;;;;;;;8.02;4.18;;;-3.60;99.90;;;;;;5013396;28;20041;-73
2021/03/07 03:54:23;;;;;;;10.52;4.00;;;-3.50;99.90;;;;;;5021352;28;20407;-73
2021/03/07 03:57:08;;;;;;;9.27;4.10;;;-3.40;99.90;;;;;;5016639;28;20048;-73
2021/03/07 03:59:56;;;;;;;8.13;4.50;;;-3.40;99.90;;;;;;5017497;28;20093;-73
2021/03/07 04:02:42;;;;;;;9.55;4.68;;;-3.40;99.90;;;;;;5015782;28;20061;-72
2021/03/07 04:05:29;;;;;;;11.32;4.15;;;-3.40;99.90;;;;;;5016029;28;20057;-73
2021/03/07 04:08:15;;;;;;;9.57;4.75;;;-3.50;99.90;;;;;;5018269;28;20102;-74
2021/03/07 04:11:00;;;;;;;9.13;4.88;;;-3.70;99.90;;;;;;5023030;28;21315;-72
2021/03/07 04:13:45;;;;;;;11.82;4.97;;;-3.80;99.90;;;;;;5018681;28;20218;-73
2021/03/07 04:16:30;;;;;;;8.98;4.55;;;-3.80;99.90;;;;;;5022881;28;20057;-73
2021/03/07 04:19:17;;;;;;;10.13;4.72;;;-3.70;99.90;;;;;;5022562;28;20084;-73
2021/03/07 04:22:02;;;;;;;10.05;4.93;;;-3.80;99.90;;;;;;5014715;28;20204;-73
2021/03/07 04:24:47;;;;;;;9.20;4.43;;;-3.80;99.90;;;;;;5014267;28;20534;-73
2021/03/07 04:27:32;;;;;;;12.15;4.90;;;-3.70;99.90;;;;;;5013132;28;20056;-73
2021/03/07 04:30:17;;;;;;;11.90;5.07;;;-3.80;99.90;;;;;;5015401;28;20048;-73
2021/03/07 04:33:03;;;;;;;9.13;4.57;;;-3.80;99.90;;;;;;5019363;28;20083;-73
2021/03/07 04:35:47;;;;;;;10.73;5.60;;;-3.80;99.90;;;;;;5019772;28;20045;-73
2021/03/07 04:38:33;;;;;;;9.25;4.57;;;-3.80;99.90;;;;;;5017467;28;20048;-73
2021/03/07 04:41:18;;;;;;;10.73;5.07;;;-3.80;99.90;;;;;;5025154;28;20121;-73
2021/03/07 04:44:02;;;;;;;9.35;4.47;;;-3.90;99.90;;;;;;5022470;28;20049;-73
2021/03/07 04:46:47;;;;;;;9.63;4.97;;;-3.90;99.90;;;;;;5014832;28;20267;-73
2021/03/07 04:49:31;;;;;;;8.75;4.43;;;-4.00;99.90;;;;;;5017741;28;20736;-73
2021/03/07 04:52:15;;;;;;;9.32;5.07;;;-4.10;99.90;;;;;;5022212;28;20045;-73
2021/03/07 04:54:59;;;;;;;7.25;3.75;;;-4.10;99.90;;;;;;5025523;28;20037;-73
2021/03/07 04:57:44;;;;;;;9.98;4.90;;;-4.10;99.90;;;;;;5023978;28;20125;-73
2021/03/07 05:00:28;;;;;;;7.85;4.07;;;-4.10;99.90;;;;;;5020077;28;20079;-73
2021/03/07 05:03:12;;;;;;;8.20;4.45;;;-4.10;99.90;;;;;;5020289;28;20491;-73
2021/03/07 05:05:56;;;;;;;8.60;3.85;;;-4.10;99.90;;;;;;5018499;28;20056;-73
2021/03/07 05:08:41;;;;;;;10.10;4.68;;;-4.00;99.90;;;;;;5013741;28;20458;-73
2021/03/07 05:11:25;;;;;;;9.52;4.93;;;-4.00;99.90;;;;;;5021806;28;20044;-73
2021/03/07 05:14:09;;;;;;;8.65;4.70;;;-3.90;99.90;;;;;;5015775;28;20048;-73
2021/03/07 05:16:53;;;;;;;9.48;4.10;;;-3.80;99.90;;;;;;5019371;28;20065;-73
2021/03/07 05:19:37;;;;;;;9.38;4.88;;;-3.70;99.90;;;;;;5027370;28;20609;-73
2021/03/07 05:22:21;;;;;;;8.13;4.40;;;-3.70;99.90;;;;;;5017083;28;20052;-73
2021/03/07 05:25:05;;;;;;;8.02;4.07;;;-3.70;99.90;;;;;;5024006;28;20048;-73
2021/03/07 05:27:49;;;;;;;9.35;4.65;;;-3.50;99.90;;;;;;5023419;28;20048;-73
2021/03/07 05:30:36;;;;;;;9.27;5.15;;;-3.30;99.90;;;;;;5020218;28;20049;-73
2021/03/07 05:33:20;;;;;;;11.45;4.70;;;-3.30;99.90;;;;;;5014573;28;20049;-73
2021/03/07 05:36:05;;;;;;;13.20;5.47;;;-3.40;99.90;;;;;;5024317;28;20042;-72
2021/03/07 05:38:49;;;;;;;10.75;5.03;;;-3.30;99.90;;;;;;5031383;28;20049;-72
2021/03/07 05:41:33;;;;;;;12.45;5.75;;;-3.40;99.90;;;;;;5016356;28;20144;-73
2021/03/07 05:44:17;;;;;;;10.85;5.63;;;-3.30;99.90;;;;;;5021749;28;20048;-73
2021/03/07 05:47:02;;;;;;;14.00;5.38;;;-3.30;99.90;;;;;;5019696;28;20084;-73
2021/03/07 05:49:46;;;;;;;12.85;5.45;;;-3.40;99.90;;;;;;5029630;28;20111;-73
2021/03/07 05:52:31;;;;;;;10.30;4.82;;;-3.30;99.90;;;;;;5028354;28;20398;-73
2021/03/07 05:55:15;;;;;;;13.40;5.80;;;-3.30;99.90;;;;;;5028407;28;20048;-73
2021/03/07 05:58:01;;;;;;;11.02;6.07;;;-3.40;99.90;;;;;;5028690;28;20056;-74
2021/03/07 06:00:45;;;;;;;14.93;6.45;;;-3.40;99.90;;;;;;5025120;28;20136;-72
2021/03/07 06:03:30;;;;;;;14.18;6.85;;;-3.50;99.90;;;;;;5030655;28;20390;-72
2021/03/07 06:06:14;;;;;;;16.50;7.78;;;-3.50;99.90;;;;;;5019005;28;20095;-72
2021/03/07 06:09:22;;;;;;;16.90;7.20;;;-3.40;99.90;;;;;;5030329;28;20082;-72
2021/03/07 06:12:18;;;;;;;14.63;7.18;;;-3.40;99.90;;;;;;5027383;28;20166;-73
2021/03/07 06:15:03;;;;;;;15.43;6.32;;;-3.30;99.90;;;;;;5026402;28;20035;-73
2021/03/07 06:17:48;;;;;;;16.98;7.35;;;-3.30;99.90;;;;;;5023873;28;20041;-72
2021/03/07 06:20:32;;;;;;;11.43;6.50;;;-3.30;99.90;;;;;;5021833;28;20056;-72
2021/03/07 06:23:17;;;;;;;13.10;6.70;;;-3.30;99.90;;;;;;5026212;28;20137;-73
2021/03/07 06:26:09;;;;;;;17.30;7.53;;;-3.30;99.90;;;;;;5026182;28;20157;-74
2021/03/07 06:29:06;;;;;;;12.98;6.35;;;-3.40;99.90;;;;;;5020397;28;20098;-74
2021/03/07 06:31:50;;;;;;;13.68;7.05;;;-3.40;99.90;;;;;;5025405;28;20107;-74
2021/03/07 06:34:48;;;;;;;16.10;7.53;;;-3.60;99.90;;;;;;5030419;28;20263;-74
2021/03/07 06:37:33;;;;;;;16.58;8.23;;;-3.70;99.90;;;;;;5022704;28;20036;-73
2021/03/07 06:40:34;;;;;;;17.90;8.32;;;-3.70;99.90;;;;;;5015633;28;20110;-74
2021/03/07 06:43:24;;;;;;;15.55;8.13;;;-3.60;99.90;;;;;;5022520;28;20145;-74
2021/03/07 06:46:29;;;;;;;12.52;7.07;;;-3.40;99.90;;;;;;5017750;28;20064;-74
2021/03/07 06:49:28;;;;;;;13.88;7.90;;;-3.40;99.90;;;;;;5017952;28;20126;-74
2021/03/07 06:52:18;;;;;;;14.82;7.53;;;-3.40;99.90;;;;;;5025486;28;20410;-73
2021/03/07 06:55:09;;;;;;;17.17;7.50;;;-3.40;99.90;;;;;;5012261;28;20087;-73
2021/03/07 06:57:54;;;;;;;15.40;7.45;;;-3.30;99.90;;;;;;5011726;28;20479;-73
2021/03/07 07:00:39;;;;;;;13.30;6.72;;;-3.30;99.90;;;;;;5012682;28;20231;-73
2021/03/07 07:03:24;;;;;;;15.25;7.00;;;-3.10;99.90;;;;;;5016195;28;20057;-74
2021/03/07 07:06:14;;;;;;;15.45;6.80;;;-3.00;99.90;;;;;;5020614;28;20065;-74
2021/03/07 07:09:00;;;;;;;13.23;7.25;;;-2.90;99.90;;;;;;5014735;28;20053;-74
2021/03/07 07:11:46;;;;;;;11.35;6.13;;;-2.80;99.90;;;;;;5017908;28;20382;-74
2021/03/07 07:14:42;;;;;;;11.93;6.07;;;-2.60;99.90;;;;;;5010922;28;20044;-74
2021/03/07 07:17:27;;;;;;;11.15;5.50;;;-2.50;99.90;;;;;;5018391;28;20467;-73
2021/03/07 07:20:12;;;;;;;14.77;6.10;;;-2.40;99.90;;;;;;5025259;28;20082;-74
2021/03/07 07:22:56;;;;;;;12.38;6.35;;;-2.30;99.90;;;;;;5017980;28;20044;-74
2021/03/07 07:25:42;;;;;;;15.02;6.32;;;-2.10;99.90;;;;;;5017681;28;20095;-74
2021/03/07 07:28:27;;;;;;;11.85;5.85;;;-2.10;99.90;;;;;;5020073;28;20489;-74
2021/03/07 07:31:16;;;;;;;10.10;5.97;;;-1.90;99.90;;;;;;5015009;28;20119;-74
2021/03/07 07:34:12;;;;;;;14.48;6.68;;;-1.80;99.90;;;;;;5019879;28;20156;-74
2021/03/07 07:37:04;;;;;;;12.68;6.60;;;-1.60;99.90;;;;;;5024773;28;20048;-74
2021/03/07 07:39:51;;;;;;;10.15;5.97;;;-1.40;99.90;;;;;;5026451;28;20049;-74
2021/03/07 07:42:37;;;;;;;11.85;5.88;;;-1.00;99.90;;;;;;5019889;28;20096;-73
2021/03/07 07:45:22;;;;;;;11.02;5.68;;;-0.50;99.90;;;;;;5021155;28;20092;-73
2021/03/07 07:48:07;;;;;;;11.00;5.72;;;0.20;99.90;;;;;;5023779;28;20076;-72
2021/03/07 07:50:51;;;;;;;9.77;5.57;;;0.60;99.90;;;;;;5019674;28;20096;-72
2021/03/07 07:53:35;;;;;;;11.27;5.47;;;1.20;99.90;;;;;;5016211;28;20118;-72
2021/03/07 07:56:39;;;;;;;10.27;5.53;;;1.80;99.90;;;;;;5011828;28;20084;-72
2021/03/07 07:59:50;;;;;;;8.25;5.45;;;2.30;99.90;;;;;;5019598;28;20596;-72
2021/03/07 08:02:46;;;;;;;11.40;6.10;;;2.60;99.90;;;;;;5023573;28;20114;-73
2021/03/07 08:05:36;;;;;;;8.80;5.28;;;3.00;99.90;;;;;;5012736;28;20129;-72
2021/03/07 08:08:30;;;;;;;8.43;5.13;;;3.20;99.90;;;;;;5022512;28;20092;-73
2021/03/07 08:11:26;;;;;;;7.85;4.78;;;3.60;99.50;;;;;;5014738;28;20059;-73
2021/03/07 08:14:34;;;;;;;7.10;4.57;;;4.30;99.60;;;;;;5024754;28;20476;-72
2021/03/07 08:17:53;;;;;;;6.22;4.13;;;5.30;97.40;;;;;;5025110;28;20100;-73
2021/03/07 08:20:38;;;;;;;9.43;5.18;;;5.30;94.60;;;;;;5030770;28;20199;-74
2021/03/07 08:23:23;;;;;;;7.30;3.88;;;5.80;93.90;;;;;;5024333;28;20458;-73
2021/03/07 08:26:09;;;;;;;6.90;4.40;;;6.00;88.20;;;;;;5029436;28;20060;-73
2021/03/07 08:28:53;;;;;;;8.27;4.60;;;5.80;85.80;;;;;;5020461;28;20498;-73
2021/03/07 08:31:38;;;;;;;8.60;4.90;;;4.90;84.70;;;;;;5028741;28;20056;-72
2021/03/07 08:34:23;;;;;;;7.38;4.43;;;5.00;90.20;;;;;;5029102;28;20044;-73
2021/03/07 08:37:15;;;;;;;7.53;4.75;;;4.60;90.30;;;;;;5024794;28;20561;-72
2021/03/07 08:40:29;;;;;;;7.03;4.28;;;4.90;93.20;;;;;;5021757;28;20045;-73
2021/03/07 08:43:43;;;;;;;10.30;4.80;;;5.20;89.20;;;;;;5022380;28;20081;-73
2021/03/07 08:46:28;;;;;;;7.78;4.28;;;5.30;88.40;;;;;;5027939;28;20056;-73
2021/03/07 08:49:17;;;;;;;8.00;4.18;;;4.90;85.10;;;;;;5033580;28;20526;-73
2021/03/07 08:52:04;;;;;;;6.47;4.28;;;5.10;83.90;;;;;;5029124;28;20560;-73
2021/03/07 08:54:48;;;;;;;6.55;4.25;;;5.10;85.60;;;;;;5022240;28;20094;-72
2021/03/07 08:57:33;;;;;;;8.60;4.35;;;5.90;83.80;;;;;;5020726;28;20517;-73
2021/03/07 09:00:18;;;;;;;7.35;4.20;;;6.50;74.20;;;;;;5024503;28;20051;-73
2021/03/07 09:03:03;;;;;;;5.32;3.90;;;6.10;71.10;;;;;;5019917;28;20053;-73
2021/03/07 09:05:49;;;;;;;5.72;4.05;;;6.30;73.90;;;;;;5024367;28;20044;-73
2021/03/07 09:08:33;;;;;;;7.25;4.65;;;6.20;74.30;;;;;;5027993;28;20048;-73
2021/03/07 09:11:17;;;;;;;6.55;3.85;;;5.80;73.70;;;;;;5026297;28;20060;-73
2021/03/07 09:14:02;;;;;;;8.40;4.22;;;5.40;75.00;;;;;;5017956;28;20048;-73
2021/03/07 09:16:47;;;;;;;7.82;4.20;;;6.30;77.50;;;;;;5029705;28;20103;-72
2021/03/07 09:19:35;;;;;;;6.55;3.85;;;6.60;68.30;;;;;;5017945;28;20060;-73
2021/03/07 09:22:26;;;;;;;8.00;4.50;;;5.90;71.50;;;;;;5016356;28;20048;-73
2021/03/07 09:25:11;;;;;;;5.90;3.58;;;5.90;77.50;;;;;;5023661;28;20116;-73
2021/03/07 09:27:55;;;;;;;9.70;4.28;;;6.50;75.30;;;;;;5021428;28;20075;-72
2021/03/07 09:30:39;;;;;;;6.53;4.00;;;6.80;79.00;;;;;;5027136;28;20068;-72
2021/03/07 09:33:23;;;;;;;8.70;3.85;;;6.90;76.30;;;;;;5023563;28;20045;-72
2021/03/07 09:36:10;;;;;;;7.95;4.53;;;6.20;77.80;;;;;;5030827;28;20060;-73
2021/03/07 09:39:00;;;;;;;7.53;3.90;;;6.20;83.10;;;;;;5025556;28;20049;-73
2021/03/07 09:41:46;;;;;;;6.13;4.05;;;5.30;83.80;;;;;;5026523;28;20099;-73
2021/03/07 09:44:31;;;;;;;8.57;3.78;;;4.70;90.70;;;;;;5011940;28;20052;-73
2021/03/07 09:47:17;;;;;;;9.55;4.60;;;4.50;92.60;;;;;;5021999;28;20049;-73
2021/03/07 09:50:02;;;;;;;7.00;4.47;;;4.40;95.20;;;;;;5011977;28;20053;-73
2021/03/07 09:52:47;;;;;;;8.52;4.22;;;4.30;96.20;;;;;;5018610;28;20749;-73
2021/03/07 09:55:34;;;;;;;5.78;3.85;;;4.40;96.50;;;;;;5013923;28;20422;-73
2021/03/07 09:58:18;;;;;;;8.70;4.88;;;4.60;98.20;;;;;;5027317;28;20040;-72
2021/03/07 10:01:06;;;;;;;7.70;4.40;;;4.70;98.20;;;;;;5025028;28;20528;-74
2021/03/07 10:03:50;;;;;;;8.35;5.13;;;4.60;96.60;;;;;;5022934;28;20037;-75
2021/03/07 10:06:35;;;;;;;7.55;4.65;;;4.60;97.30;;;;;;5021692;28;20099;-74
2021/03/07 10:09:20;;;;;;;11.23;5.13;;;4.70;97.20;;;;;;5026440;28;20518;-74
2021/03/07 10:12:05;;;;;;;11.35;5.50;;;4.60;98.20;;;;;;5030797;28;20091;-74
2021/03/07 10:14:54;;;;;;;11.75;5.03;;;4.50;98.00;;;;;;5030657;28;20048;-74
2021/03/07 10:17:41;;;;;;;9.75;5.47;;;4.50;98.70;;;;;;5029089;28;20072;-74
2021/03/07 10:20:36;;;;;;;8.40;4.90;;;4.40;98.50;;;;;;5028823;28;20111;-74
2021/03/07 10:23:29;;;;;;;8.38;4.80;;;4.50;98.20;;;;;;5014178;28;20069;-74
2021/03/07 10:26:13;;;;;;;9.23;5.35;;;4.60;99.00;;;;;;5026173;28;20053;-74
2021/03/07 10:28:57;;;;;;;9.00;5.78;;;4.60;98.70;;;;;;5031060;28;20068;-75
2021/03/07 10:32:01;;;;;;;9.40;5.60;;;4.70;99.40;;;;;;5029710;28;20099;-75
2021/03/07 10:34:50;;;;;;;16.95;8.52;;;4.80;99.10;;;;;;5025072;28;20052;-74
2021/03/07 10:37:41;;;;;;;9.13;5.40;;;5.00;99.50;;;;;;5022986;28;20064;-74
2021/03/07 10:40:30;;;;;;;9.30;5.35;;;5.10;98.80;;;;;;5017710;28;20048;-74
2021/03/07 10:43:15;;;;;;;9.25;5.88;;;5.20;98.00;;;;;;5019390;28;20045;-74
2021/03/07 10:45:59;;;;;;;10.60;6.13;;;5.20;99.90;;;;;;5025401;28;20072;-74
2021/03/07 10:48:44;;;;;;;11.48;6.95;;;5.20;99.90;;;;;;5024806;28;20084;-74
2021/03/07 10:51:29;;;;;;;9.32;6.07;;;5.20;99.90;;;;;;5025742;28;20151;-74
2021/03/07 10:54:13;;;;;;;10.98;6.35;;;5.10;99.80;;;;;;5014882;28;20060;-74
2021/03/07 10:56:58;;;;;;;11.45;6.32;;;5.20;99.90;;;;;;5025385;28;20060;-75
2021/03/07 10:59:42;;;;;;;9.82;6.32;;;5.40;99.90;;;;;;5017346;28;20148;-74
2021/03/07 11:02:26;;;;;;;9.77;5.90;;;5.50;99.40;;;;;;5022906;28;20056;-73
2021/03/07 11:05:12;;;;;;;11.63;6.85;;;5.30;99.10;;;;;;5020247;28;20529;-73
2021/03/07 11:07:56;;;;;;;10.93;5.93;;;5.40;99.90;;;;;;5016009;28;20109;-73
2021/03/07 11:10:40;;;;;;;10.15;6.38;;;5.60;99.60;;;;;;5017907;28;20048;-73
2021/03/07 11:13:24;;;;;;;11.65;5.78;;;5.40;99.10;;;;;;5019183;28;20072;-72
2021/03/07 11:16:09;;;;;;;11.35;5.78;;;5.70;99.50;;;;;;5014982;28;20132;-73
2021/03/07 11:18:53;;;;;;;9.48;5.65;;;5.80;97.80;;;;;;5024278;28;20461;-73
2021/03/07 11:21:37;;;;;;;9.40;5.57;;;6.00;97.70;;;;;;5019762;28;20100;-71
2021/03/07 11:24:21;;;;;;;12.98;6.10;;;6.10;97.40;;;;;;5011365;28;20045;-71
2021/03/07 11:27:06;;;;;;;11.98;6.25;;;6.20;96.40;;;;;;5015527;28;20044;-71
2021/03/07 11:29:50;;;;;;;10.10;6.03;;;6.20;96.80;;;;;;5017274;28;20129;-73
2021/03/07 11:32:34;;;;;;;11.20;6.50;;;6.20;96.10;;;;;;5029986;28;20133;-73
2021/03/07 11:35:19;;;;;;;9.80;6.40;;;6.10;97.00;;;;;;5020238;28;20133;-72
2021/03/07 11:38:03;;;;;;;14.00;6.38;;;6.00;98.10;;;;;;5030344;28;20545;-72
2021/03/07 11:40:47;;;;;;;9.88;5.53;;;6.00;98.50;;;;;;5039938;28;20496;-75
2021/03/07 11:43:32;;;;;;;9.82;6.40;;;6.20;97.00;;;;;;5032653;28;20107;-74
2021/03/07 11:46:16;;;;;;;10.70;6.28;;;6.40;97.30;;;;;;5031366;28;20056;-73
2021/03/07 11:49:00;;;;;;;9.73;6.50;;;6.50;97.30;;;;;;5026197;28;20096;-73
2021/03/07 11:51:44;;;;;;;9.35;5.78;;;6.60;96.50;;;;;;5021811;28;20386;-73
2021/03/07 11:54:29;;;;;;;10.95;6.13;;;6.60;96.40;;;;;;5016593;28;20577;-73
2021/03/07 11:57:13;;;;;;;11.25;6.30;;;6.60;96.50;;;;;;5018174;28;20692;-73
2021/03/07 11:59:57;;;;;;;10.30;6.18;;;6.70;97.00;;;;;;5030735;28;20048;-73
2021/03/07 12:02:41;;;;;;;10.68;6.28;;;6.80;95.60;;;;;;5023523;28;20395;-73
2021/03/07 12:05:25;;;;;;;10.55;6.28;;;6.90;96.50;;;;;;5017993;28;20053;-74
2021/03/07 12:08:10;;;;;;;9.13;5.88;;;7.00;95.70;;;;;;5022655;28;20044;-73
2021/03/07 12:10:54;;;;;;;9.95;6.30;;;7.00;97.10;;;;;;5017465;28;20081;-72
2021/03/07 12:13:39;;;;;;;9.63;5.65;;;7.10;95.20;;;;;;5017998;28;20053;-73
2021/03/07 12:16:23;;;;;;;9.18;6.13;;;7.00;95.30;;;;;;5016760;28;20048;-73
2021/03/07 12:19:07;;;;;;;10.15;6.20;;;7.20;94.20;;;;;;5023614;28;20251;-72
2021/03/07 12:21:51;;;;;;;9.77;6.57;;;7.30;94.00;;;;;;5026918;28;20036;-73
2021/03/07 12:24:36;;;;;;;11.18;6.50;;;7.40;93.10;;;;;;5040597;28;20447;-74
2021/03/07 12:27:20;;;;;;;9.73;6.07;;;7.50;92.60;;;;;;5026270;28;20072;-74
2021/03/07 12:30:05;;;;;;;9.30;5.63;;;7.60;92.10;;;;;;5017585;28;20088;-74
2021/03/07 12:32:50;;;;;;;12.68;6.32;;;7.60;90.70;;;;;;5024406;28;20048;-75
2021/03/07 12:35:34;;;;;;;10.40;6.53;;;7.70;89.80;;;;;;5018749;28;20478;-75
2021/03/07 12:38:18;;;;;;;9.52;6.25;;;7.90;88.60;;;;;;5029997;28;20179;-74
2021/03/07 12:41:02;;;;;;;10.38;6.28;;;7.90;92.50;;;;;;5025175;28;20145;-74
2021/03/07 12:43:47;;;;;;;10.55;6.70;;;7.90;90.10;;;;;;5021882;28;20045;-73
2021/03/07 12:46:30;;;;;;;9.95;6.50;;;7.80;89.30;;;;;;5023010;28;20131;-74
2021/03/07 12:49:14;;;;;;;15.77;6.50;;;7.50;92.30;;;;;;5023264;28;20109;-73
2021/03/07 12:51:59;;;;;;;9.73;6.45;;;7.60;87.10;;;;;;5022613;28;20160;-73
2021/03/07 12:54:43;;;;;;;10.38;6.07;;;8.00;87.40;;;;;;5019797;28;20489;-73
2021/03/07 12:57:27;;;;;;;10.48;6.07;;;8.30;88.30;;;;;;5018587;28;20076;-74
2021/03/07 13:00:12;;;;;;;8.80;6.05;;;8.50;81.60;;;;;;5027322;28;20056;-72
2021/03/07 13:02:56;;;;;;;11.90;6.85;;;8.90;78.50;;;;;;5023220;28;20590;-74
2021/03/07 13:05:40;;;;;;;11.07;6.07;;;9.10;71.80;;;;;;5021273;28;20044;-72
2021/03/07 13:08:24;;;;;;;9.10;5.95;;;9.20;74.40;;;;;;5021095;28;20106;-72
2021/03/07 13:11:08;;;;;;;10.43;6.65;;;9.40;73.60;;;;;;5026296;28;20052;-72
2021/03/07 13:13:53;;;;;;;9.77;6.22;;;9.40;67.80;;;;;;5024843;28;20104;-72
2021/03/07 13:16:37;;;;;;;9.27;6.05;;;9.60;68.60;;;;;;5024486;28;20083;-73
2021/03/07 13:19:22;;;;;;;8.23;6.03;;;9.90;67.60;;;;;;5016669;28;20052;-73
2021/03/07 13:22:09;;;;;;;9.40;6.57;;;9.90;63.80;;;;;;5021073;28;20131;-73
2021/03/07 13:24:53;;;;;;;11.52;6.38;;;10.20;62.50;;;;;;5019838;28;20129;-73
2021/03/07 13:27:38;;;;;;;9.93;6.90;;;10.80;60.40;;;;;;5029632;28;20164;-73
2021/03/07 13:30:22;;;;;;;9.88;6.13;;;12.30;54.50;;;;;;5022714;28;20556;-73
2021/03/07 13:33:07;;;;;;;9.70;6.50;;;14.80;49.20;;;;;;5017483;28;20144;-73
2021/03/07 13:35:51;;;;;;;8.13;5.45;;;16.90;44.00;;;;;;5024676;28;20052;-74
2021/03/07 13:38:36;;;;;;;9.50;6.18;;;18.50;41.20;;;;;;5025047;28;20152;-73
2021/03/07 13:41:20;;;;;;;9.63;6.10;;;19.80;37.10;;;;;;5022224;28;20465;-74
2021/03/07 13:44:05;;;;;;;6.93;5.45;;;20.10;34.80;;;;;;5021229;28;20480;-74
2021/03/07 13:46:49;;;;;;;7.65;5.70;;;20.80;33.80;;;;;;5022691;28;20052;-74
2021/03/07 13:49:33;;;;;;;7.97;5.43;;;21.20;32.50;;;;;;5027027;28;20473;-74
2021/03/07 13:52:17;;;;;;;8.82;5.60;;;20.80;33.20;;;;;;5024190;28;20132;-74
2021/03/07 13:55:01;;;;;;;9.65;5.82;;;21.00;32.90;;;;;;5021095;28;20040;-74
2021/03/07 13:57:46;;;;;;;8.48;5.72;;;21.80;31.80;;;;;;5021732;28;20060;-74
2021/03/07 14:00:30;;;;;;;7.10;5.55;;;22.10;30.30;;;;;;5021003;28;20052;-74
2021/03/07 14:03:15;;;;;;;7.45;5.65;;;21.90;32.20;;;;;;5022650;28;20108;-74
2021/03/07 14:05:59;;;;;;;7.97;5.72;;;23.10;31.60;;;;;;5030925;28;20052;-74
2021/03/07 14:08:43;;;;;;;6.75;5.72;;;24.10;30.20;;;;;;5028907;28;20036;-74
2021/03/07 14:11:27;;;;;;;9.88;6.03;;;24.30;29.50;;;;;;5027281;28;20099;-74
2021/03/07 14:14:12;;;;;;;7.20;5.25;;;23.80;29.60;;;;;;5020127;28;20044;-74
2021/03/07 14:16:56;;;;;;;7.63;5.97;;;23.50;30.00;;;;;;5027729;28;20092;-74
2021/03/07 14:19:40;;;;;;;6.45;5.20;;;23.60;29.70;;;;;;5030618;28;20199;-74
2021/03/07 14:22:24;;;;;;;8.40;5.85;;;21.60;29.90;;;;;;5032006;28;20328;-74
2021/03/07 14:25:09;;;;;;;7.80;5.20;;;22.50;29.90;;;;;;5033151;28;20048;-74